sensor_id;sensor_type;location;lat;lon;timestamp;P1;durP1;ratioP1;P2;durP2;ratioP2
52948;SDS011;38812;50.942;3.644;2023-05-17T00:01:16;15.30;;;2.83;;
52948;SDS011;38812;50.942;3.644;2023-05-17T00:03:41;9.52;;;3.58;;
52948;SDS011;38812;50.942;3.644;2023-05-17T00:06:07;8.25;;;2.90;;
52948;SDS011;38812;50.942;3.644;2023-05-17T00:08:32;12.98;;;3.50;;
52948;SDS011;38812;50.942;3.644;2023-05-17T00:10:57;13.35;;;3.05;;
52948;SDS011;38812;50.942;3.644;2023-05-17T00:13:23;11.05;;;3.20;;
52948;SDS011;38812;50.942;3.644;2023-05-17T00:15:48;9.30;;;2.63;;
52948;SDS011;38812;50.942;3.644;2023-05-17T00:18:14;5.50;;;2.50;;
52948;SDS011;38812;50.942;3.644;2023-05-17T00:20:39;8.48;;;3.30;;
52948;SDS011;38812;50.942;3.644;2023-05-17T00:23:04;8.95;;;3.00;;
52948;SDS011;38812;50.942;3.644;2023-05-17T00:25:30;13.27;;;3.35;;
52948;SDS011;38812;50.942;3.644;2023-05-17T00:27:55;6.30;;;2.75;;
52948;SDS011;38812;50.942;3.644;2023-05-17T00:30:21;18.10;;;3.25;;
52948;SDS011;38812;50.942;3.644;2023-05-17T00:32:46;14.95;;;3.22;;
52948;SDS011;38812;50.942;3.644;2023-05-17T00:35:12;10.48;;;4.28;;
52948;SDS011;38812;50.942;3.644;2023-05-17T00:37:38;6.72;;;3.03;;
52948;SDS011;38812;50.942;3.644;2023-05-17T00:40:03;8.32;;;3.08;;
52948;SDS011;38812;50.942;3.644;2023-05-17T00:42:30;8.50;;;3.25;;
52948;SDS011;38812;50.942;3.644;2023-05-17T00:44:55;10.27;;;3.53;;
52948;SDS011;38812;50.942;3.644;2023-05-17T00:47:21;10.13;;;3.35;;
52948;SDS011;38812;50.942;3.644;2023-05-17T00:49:46;13.80;;;3.85;;
52948;SDS011;38812;50.942;3.644;2023-05-17T00:52:12;7.78;;;3.13;;
52948;SDS011;38812;50.942;3.644;2023-05-17T00:54:38;10.15;;;3.53;;
52948;SDS011;38812;50.942;3.644;2023-05-17T00:57:04;11.63;;;3.53;;
52948;SDS011;38812;50.942;3.644;2023-05-17T00:59:30;8.77;;;3.45;;
52948;SDS011;38812;50.942;3.644;2023-05-17T01:01:56;12.70;;;3.55;;
52948;SDS011;38812;50.942;3.644;2023-05-17T01:04:22;11.10;;;3.42;;
52948;SDS011;38812;50.942;3.644;2023-05-17T01:06:48;11.60;;;3.05;;
52948;SDS011;38812;50.942;3.644;2023-05-17T01:09:14;10.88;;;2.97;;
52948;SDS011;38812;50.942;3.644;2023-05-17T01:14:40;11.32;;;3.47;;
52948;SDS011;38812;50.942;3.644;2023-05-17T01:22:43;12.00;;;3.47;;
52948;SDS011;38812;50.942;3.644;2023-05-17T01:27:59;5.65;;;3.00;;
52948;SDS011;38812;50.942;3.644;2023-05-17T01:30:26;14.82;;;3.95;;
52948;SDS011;38812;50.942;3.644;2023-05-17T01:32:56;8.48;;;3.13;;
52948;SDS011;38812;50.942;3.644;2023-05-17T01:35:23;12.18;;;3.50;;
52948;SDS011;38812;50.942;3.644;2023-05-17T01:37:48;9.95;;;2.97;;
52948;SDS011;38812;50.942;3.644;2023-05-17T01:40:14;9.90;;;3.38;;
52948;SDS011;38812;50.942;3.644;2023-05-17T01:42:42;8.75;;;3.22;;
52948;SDS011;38812;50.942;3.644;2023-05-17T01:50:31;8.82;;;3.35;;
52948;SDS011;38812;50.942;3.644;2023-05-17T01:53:01;9.45;;;3.25;;
52948;SDS011;38812;50.942;3.644;2023-05-17T01:55:35;3.38;;;2.70;;
52948;SDS011;38812;50.942;3.644;2023-05-17T01:58:05;9.00;;;3.20;;
52948;SDS011;38812;50.942;3.644;2023-05-17T02:00:31;14.82;;;5.22;;
52948;SDS011;38812;50.942;3.644;2023-05-17T02:02:57;7.90;;;3.30;;
52948;SDS011;38812;50.942;3.644;2023-05-17T02:05:23;10.88;;;3.67;;
52948;SDS011;38812;50.942;3.644;2023-05-17T02:07:48;9.95;;;3.10;;
52948;SDS011;38812;50.942;3.644;2023-05-17T02:10:13;8.98;;;3.00;;
52948;SDS011;38812;50.942;3.644;2023-05-17T02:12:39;8.95;;;3.22;;
52948;SDS011;38812;50.942;3.644;2023-05-17T02:15:04;6.20;;;3.08;;
52948;SDS011;38812;50.942;3.644;2023-05-17T02:17:31;8.15;;;4.07;;
52948;SDS011;38812;50.942;3.644;2023-05-17T02:19:57;7.63;;;3.08;;
52948;SDS011;38812;50.942;3.644;2023-05-17T02:22:22;11.32;;;3.42;;
52948;SDS011;38812;50.942;3.644;2023-05-17T02:24:47;11.77;;;3.03;;
52948;SDS011;38812;50.942;3.644;2023-05-17T02:27:13;5.45;;;2.92;;
52948;SDS011;38812;50.942;3.644;2023-05-17T02:29:38;9.02;;;3.55;;
52948;SDS011;38812;50.942;3.644;2023-05-17T02:32:04;8.20;;;3.30;;
52948;SDS011;38812;50.942;3.644;2023-05-17T02:34:30;8.70;;;3.40;;
52948;SDS011;38812;50.942;3.644;2023-05-17T02:36:55;7.88;;;3.15;;
52948;SDS011;38812;50.942;3.644;2023-05-17T02:39:21;7.70;;;3.40;;
52948;SDS011;38812;50.942;3.644;2023-05-17T02:41:46;9.85;;;3.35;;
52948;SDS011;38812;50.942;3.644;2023-05-17T02:44:11;12.52;;;4.13;;
52948;SDS011;38812;50.942;3.644;2023-05-17T02:46:37;6.60;;;2.72;;
52948;SDS011;38812;50.942;3.644;2023-05-17T02:49:02;6.15;;;3.08;;
52948;SDS011;38812;50.942;3.644;2023-05-17T02:51:27;5.82;;;3.33;;
52948;SDS011;38812;50.942;3.644;2023-05-17T02:53:53;12.85;;;3.38;;
52948;SDS011;38812;50.942;3.644;2023-05-17T02:56:18;8.65;;;3.60;;
52948;SDS011;38812;50.942;3.644;2023-05-17T02:58:43;11.32;;;4.00;;
52948;SDS011;38812;50.942;3.644;2023-05-17T03:01:09;8.93;;;2.80;;
52948;SDS011;38812;50.942;3.644;2023-05-17T03:03:34;10.98;;;3.97;;
52948;SDS011;38812;50.942;3.644;2023-05-17T03:06:00;9.02;;;3.55;;
52948;SDS011;38812;50.942;3.644;2023-05-17T03:08:26;8.27;;;3.33;;
52948;SDS011;38812;50.942;3.644;2023-05-17T03:10:51;9.00;;;3.63;;
52948;SDS011;38812;50.942;3.644;2023-05-17T03:13:17;12.02;;;3.28;;
52948;SDS011;38812;50.942;3.644;2023-05-17T03:15:42;6.28;;;2.88;;
52948;SDS011;38812;50.942;3.644;2023-05-17T03:18:07;12.10;;;3.75;;
52948;SDS011;38812;50.942;3.644;2023-05-17T03:20:33;12.27;;;4.20;;
52948;SDS011;38812;50.942;3.644;2023-05-17T03:22:58;11.80;;;3.80;;
52948;SDS011;38812;50.942;3.644;2023-05-17T03:25:23;11.68;;;3.95;;
52948;SDS011;38812;50.942;3.644;2023-05-17T03:27:49;15.77;;;3.80;;
52948;SDS011;38812;50.942;3.644;2023-05-17T03:30:14;11.18;;;4.28;;
52948;SDS011;38812;50.942;3.644;2023-05-17T03:32:40;9.52;;;3.60;;
52948;SDS011;38812;50.942;3.644;2023-05-17T03:35:05;6.85;;;3.13;;
52948;SDS011;38812;50.942;3.644;2023-05-17T03:37:32;9.13;;;3.80;;
52948;SDS011;38812;50.942;3.644;2023-05-17T03:39:57;8.18;;;4.13;;
52948;SDS011;38812;50.942;3.644;2023-05-17T03:42:23;8.00;;;3.78;;
52948;SDS011;38812;50.942;3.644;2023-05-17T03:44:48;11.35;;;4.03;;
52948;SDS011;38812;50.942;3.644;2023-05-17T03:47:14;10.65;;;4.38;;
52948;SDS011;38812;50.942;3.644;2023-05-17T03:49:39;4.50;;;3.42;;
52948;SDS011;38812;50.942;3.644;2023-05-17T03:52:05;8.10;;;3.13;;
52948;SDS011;38812;50.942;3.644;2023-05-17T03:54:31;7.22;;;3.22;;
52948;SDS011;38812;50.942;3.644;2023-05-17T03:56:56;15.02;;;3.83;;
52948;SDS011;38812;50.942;3.644;2023-05-17T03:59:21;6.60;;;3.50;;
52948;SDS011;38812;50.942;3.644;2023-05-17T04:01:47;11.88;;;4.00;;
52948;SDS011;38812;50.942;3.644;2023-05-17T04:04:12;12.70;;;4.38;;
52948;SDS011;38812;50.942;3.644;2023-05-17T04:06:38;7.72;;;3.67;;
52948;SDS011;38812;50.942;3.644;2023-05-17T04:09:05;12.68;;;3.88;;
52948;SDS011;38812;50.942;3.644;2023-05-17T04:11:31;5.95;;;3.28;;
52948;SDS011;38812;50.942;3.644;2023-05-17T04:13:57;11.55;;;3.30;;
52948;SDS011;38812;50.942;3.644;2023-05-17T04:16:22;12.50;;;3.35;;
52948;SDS011;38812;50.942;3.644;2023-05-17T04:18:47;9.63;;;3.83;;
52948;SDS011;38812;50.942;3.644;2023-05-17T04:21:16;7.93;;;4.28;;
52948;SDS011;38812;50.942;3.644;2023-05-17T04:23:42;10.95;;;4.10;;
52948;SDS011;38812;50.942;3.644;2023-05-17T04:26:08;4.95;;;4.10;;
52948;SDS011;38812;50.942;3.644;2023-05-17T04:28:33;9.52;;;4.20;;
52948;SDS011;38812;50.942;3.644;2023-05-17T04:30:59;15.32;;;4.80;;
52948;SDS011;38812;50.942;3.644;2023-05-17T04:33:25;8.02;;;4.70;;
52948;SDS011;38812;50.942;3.644;2023-05-17T04:35:53;16.58;;;4.88;;
52948;SDS011;38812;50.942;3.644;2023-05-17T04:38:18;7.53;;;4.40;;
52948;SDS011;38812;50.942;3.644;2023-05-17T04:40:44;13.02;;;3.88;;
52948;SDS011;38812;50.942;3.644;2023-05-17T04:43:09;8.52;;;4.25;;
52948;SDS011;38812;50.942;3.644;2023-05-17T04:45:35;11.65;;;4.97;;
52948;SDS011;38812;50.942;3.644;2023-05-17T04:48:01;7.07;;;4.30;;
52948;SDS011;38812;50.942;3.644;2023-05-17T04:50:27;19.80;;;5.88;;
52948;SDS011;38812;50.942;3.644;2023-05-17T04:52:52;11.57;;;5.07;;
52948;SDS011;38812;50.942;3.644;2023-05-17T04:55:18;8.65;;;3.83;;
52948;SDS011;38812;50.942;3.644;2023-05-17T04:57:43;13.45;;;4.97;;
52948;SDS011;38812;50.942;3.644;2023-05-17T05:00:09;9.02;;;4.38;;
52948;SDS011;38812;50.942;3.644;2023-05-17T05:02:35;10.82;;;4.63;;
52948;SDS011;38812;50.942;3.644;2023-05-17T05:05:01;16.58;;;5.40;;
52948;SDS011;38812;50.942;3.644;2023-05-17T05:07:28;11.75;;;4.70;;
52948;SDS011;38812;50.942;3.644;2023-05-17T05:09:54;8.20;;;4.57;;
52948;SDS011;38812;50.942;3.644;2023-05-17T05:12:20;12.25;;;4.72;;
52948;SDS011;38812;50.942;3.644;2023-05-17T05:14:45;11.60;;;4.90;;
52948;SDS011;38812;50.942;3.644;2023-05-17T05:17:11;14.50;;;4.78;;
52948;SDS011;38812;50.942;3.644;2023-05-17T05:19:36;12.85;;;4.78;;
52948;SDS011;38812;50.942;3.644;2023-05-17T05:22:01;13.90;;;4.85;;
52948;SDS011;38812;50.942;3.644;2023-05-17T05:24:27;24.30;;;5.22;;
52948;SDS011;38812;50.942;3.644;2023-05-17T05:26:52;11.43;;;5.03;;
52948;SDS011;38812;50.942;3.644;2023-05-17T05:29:17;12.20;;;5.35;;
52948;SDS011;38812;50.942;3.644;2023-05-17T05:31:43;7.93;;;4.90;;
52948;SDS011;38812;50.942;3.644;2023-05-17T05:34:08;15.07;;;5.35;;
52948;SDS011;38812;50.942;3.644;2023-05-17T05:36:34;11.93;;;4.15;;
52948;SDS011;38812;50.942;3.644;2023-05-17T05:38:59;14.52;;;6.10;;
52948;SDS011;38812;50.942;3.644;2023-05-17T05:41:25;14.90;;;5.00;;
52948;SDS011;38812;50.942;3.644;2023-05-17T05:43:50;13.07;;;5.07;;
52948;SDS011;38812;50.942;3.644;2023-05-17T05:46:16;17.73;;;5.93;;
52948;SDS011;38812;50.942;3.644;2023-05-17T05:48:41;15.23;;;5.28;;
52948;SDS011;38812;50.942;3.644;2023-05-17T05:51:07;15.52;;;5.35;;
52948;SDS011;38812;50.942;3.644;2023-05-17T05:53:32;9.98;;;4.50;;
52948;SDS011;38812;50.942;3.644;2023-05-17T05:55:58;22.30;;;5.38;;
52948;SDS011;38812;50.942;3.644;2023-05-17T05:58:23;14.57;;;4.85;;
52948;SDS011;38812;50.942;3.644;2023-05-17T06:00:48;13.45;;;4.68;;
52948;SDS011;38812;50.942;3.644;2023-05-17T06:03:14;13.48;;;4.97;;
52948;SDS011;38812;50.942;3.644;2023-05-17T06:05:40;9.52;;;4.38;;
52948;SDS011;38812;50.942;3.644;2023-05-17T06:08:05;10.25;;;4.25;;
52948;SDS011;38812;50.942;3.644;2023-05-17T06:10:31;13.18;;;3.95;;
52948;SDS011;38812;50.942;3.644;2023-05-17T06:12:57;12.45;;;4.47;;
52948;SDS011;38812;50.942;3.644;2023-05-17T06:15:22;15.30;;;4.93;;
52948;SDS011;38812;50.942;3.644;2023-05-17T06:17:48;11.07;;;3.80;;
52948;SDS011;38812;50.942;3.644;2023-05-17T06:20:13;9.00;;;4.63;;
52948;SDS011;38812;50.942;3.644;2023-05-17T06:22:40;13.30;;;4.80;;
52948;SDS011;38812;50.942;3.644;2023-05-17T06:25:06;17.38;;;4.63;;
52948;SDS011;38812;50.942;3.644;2023-05-17T06:27:32;11.15;;;4.45;;
52948;SDS011;38812;50.942;3.644;2023-05-17T06:29:57;9.73;;;4.65;;
52948;SDS011;38812;50.942;3.644;2023-05-17T06:32:23;14.75;;;4.88;;
52948;SDS011;38812;50.942;3.644;2023-05-17T06:34:49;10.85;;;4.80;;
52948;SDS011;38812;50.942;3.644;2023-05-17T06:37:14;13.82;;;4.57;;
52948;SDS011;38812;50.942;3.644;2023-05-17T06:39:40;10.30;;;4.50;;
52948;SDS011;38812;50.942;3.644;2023-05-17T06:42:05;13.95;;;4.15;;
52948;SDS011;38812;50.942;3.644;2023-05-17T06:44:30;15.98;;;4.95;;
52948;SDS011;38812;50.942;3.644;2023-05-17T06:46:56;11.25;;;4.53;;
52948;SDS011;38812;50.942;3.644;2023-05-17T06:49:21;11.23;;;4.03;;
52948;SDS011;38812;50.942;3.644;2023-05-17T06:51:47;13.98;;;4.65;;
52948;SDS011;38812;50.942;3.644;2023-05-17T06:54:12;8.30;;;4.28;;
52948;SDS011;38812;50.942;3.644;2023-05-17T06:56:38;10.57;;;4.45;;
52948;SDS011;38812;50.942;3.644;2023-05-17T06:59:03;12.40;;;5.00;;
52948;SDS011;38812;50.942;3.644;2023-05-17T07:01:29;11.63;;;4.72;;
52948;SDS011;38812;50.942;3.644;2023-05-17T07:03:55;19.45;;;4.75;;
52948;SDS011;38812;50.942;3.644;2023-05-17T07:06:20;11.95;;;3.80;;
52948;SDS011;38812;50.942;3.644;2023-05-17T07:08:46;14.10;;;4.82;;
52948;SDS011;38812;50.942;3.644;2023-05-17T07:11:11;10.32;;;4.30;;
52948;SDS011;38812;50.942;3.644;2023-05-17T07:13:36;9.43;;;4.55;;
52948;SDS011;38812;50.942;3.644;2023-05-17T07:16:01;11.23;;;4.75;;
52948;SDS011;38812;50.942;3.644;2023-05-17T07:18:27;10.40;;;4.38;;
52948;SDS011;38812;50.942;3.644;2023-05-17T07:20:52;12.60;;;4.63;;
52948;SDS011;38812;50.942;3.644;2023-05-17T07:23:18;13.50;;;4.65;;
52948;SDS011;38812;50.942;3.644;2023-05-17T07:25:43;21.35;;;4.53;;
52948;SDS011;38812;50.942;3.644;2023-05-17T07:28:10;16.02;;;4.30;;
52948;SDS011;38812;50.942;3.644;2023-05-17T07:30:35;14.85;;;3.80;;
52948;SDS011;38812;50.942;3.644;2023-05-17T07:33:01;7.20;;;3.45;;
52948;SDS011;38812;50.942;3.644;2023-05-17T07:35:26;10.02;;;3.75;;
52948;SDS011;38812;50.942;3.644;2023-05-17T07:37:51;15.88;;;4.97;;
52948;SDS011;38812;50.942;3.644;2023-05-17T07:40:17;13.13;;;3.13;;
52948;SDS011;38812;50.942;3.644;2023-05-17T07:42:42;8.18;;;2.67;;
52948;SDS011;38812;50.942;3.644;2023-05-17T07:45:08;8.05;;;2.50;;
52948;SDS011;38812;50.942;3.644;2023-05-17T07:47:33;11.48;;;3.35;;
52948;SDS011;38812;50.942;3.644;2023-05-17T07:49:59;8.95;;;2.90;;
52948;SDS011;38812;50.942;3.644;2023-05-17T07:52:24;5.00;;;3.63;;
52948;SDS011;38812;50.942;3.644;2023-05-17T07:54:50;11.57;;;4.30;;
52948;SDS011;38812;50.942;3.644;2023-05-17T07:57:15;10.98;;;3.28;;
52948;SDS011;38812;50.942;3.644;2023-05-17T07:59:40;13.73;;;4.22;;
52948;SDS011;38812;50.942;3.644;2023-05-17T08:02:06;15.82;;;4.40;;
52948;SDS011;38812;50.942;3.644;2023-05-17T08:04:31;8.80;;;3.15;;
52948;SDS011;38812;50.942;3.644;2023-05-17T08:06:56;5.72;;;2.70;;
52948;SDS011;38812;50.942;3.644;2023-05-17T08:09:24;10.57;;;3.67;;
52948;SDS011;38812;50.942;3.644;2023-05-17T08:11:50;9.38;;;2.95;;
52948;SDS011;38812;50.942;3.644;2023-05-17T08:14:15;13.85;;;2.95;;
52948;SDS011;38812;50.942;3.644;2023-05-17T08:16:41;8.52;;;3.10;;
52948;SDS011;38812;50.942;3.644;2023-05-17T08:19:09;12.02;;;3.50;;
52948;SDS011;38812;50.942;3.644;2023-05-17T08:21:37;8.82;;;3.47;;
52948;SDS011;38812;50.942;3.644;2023-05-17T08:24:03;11.73;;;2.75;;
52948;SDS011;38812;50.942;3.644;2023-05-17T08:26:28;17.55;;;3.47;;
52948;SDS011;38812;50.942;3.644;2023-05-17T08:28:54;18.52;;;3.53;;
52948;SDS011;38812;50.942;3.644;2023-05-17T08:31:19;10.50;;;3.45;;
52948;SDS011;38812;50.942;3.644;2023-05-17T08:33:45;10.68;;;2.90;;
52948;SDS011;38812;50.942;3.644;2023-05-17T08:36:10;14.00;;;3.47;;
52948;SDS011;38812;50.942;3.644;2023-05-17T08:38:35;7.70;;;3.33;;
52948;SDS011;38812;50.942;3.644;2023-05-17T08:41:01;6.78;;;2.70;;
52948;SDS011;38812;50.942;3.644;2023-05-17T08:43:27;7.78;;;3.35;;
52948;SDS011;38812;50.942;3.644;2023-05-17T08:45:52;9.13;;;3.17;;
52948;SDS011;38812;50.942;3.644;2023-05-17T08:48:18;9.05;;;2.55;;
52948;SDS011;38812;50.942;3.644;2023-05-17T08:50:45;9.48;;;3.35;;
52948;SDS011;38812;50.942;3.644;2023-05-17T08:53:11;12.60;;;3.75;;
52948;SDS011;38812;50.942;3.644;2023-05-17T08:55:39;11.93;;;2.67;;
52948;SDS011;38812;50.942;3.644;2023-05-17T08:58:07;9.23;;;2.20;;
52948;SDS011;38812;50.942;3.644;2023-05-17T09:00:33;9.07;;;2.25;;
52948;SDS011;38812;50.942;3.644;2023-05-17T09:02:59;10.15;;;4.15;;
52948;SDS011;38812;50.942;3.644;2023-05-17T09:05:25;8.80;;;2.78;;
52948;SDS011;38812;50.942;3.644;2023-05-17T09:07:52;5.65;;;2.10;;
52948;SDS011;38812;50.942;3.644;2023-05-17T09:10:18;8.27;;;2.58;;
52948;SDS011;38812;50.942;3.644;2023-05-17T09:12:43;6.95;;;2.20;;
52948;SDS011;38812;50.942;3.644;2023-05-17T09:15:16;8.20;;;3.25;;
52948;SDS011;38812;50.942;3.644;2023-05-17T09:17:49;14.35;;;2.58;;
52948;SDS011;38812;50.942;3.644;2023-05-17T09:20:20;9.13;;;2.42;;
52948;SDS011;38812;50.942;3.644;2023-05-17T09:22:48;6.45;;;2.08;;
52948;SDS011;38812;50.942;3.644;2023-05-17T09:25:17;5.40;;;2.60;;
52948;SDS011;38812;50.942;3.644;2023-05-17T09:27:43;11.10;;;2.53;;
52948;SDS011;38812;50.942;3.644;2023-05-17T09:30:09;8.70;;;2.35;;
52948;SDS011;38812;50.942;3.644;2023-05-17T09:32:35;9.35;;;3.20;;
52948;SDS011;38812;50.942;3.644;2023-05-17T09:35:09;8.43;;;2.15;;
52948;SDS011;38812;50.942;3.644;2023-05-17T09:37:36;8.70;;;2.15;;
52948;SDS011;38812;50.942;3.644;2023-05-17T09:40:02;6.18;;;2.28;;
52948;SDS011;38812;50.942;3.644;2023-05-17T09:42:32;7.00;;;2.72;;
52948;SDS011;38812;50.942;3.644;2023-05-17T09:45:00;9.07;;;2.85;;
52948;SDS011;38812;50.942;3.644;2023-05-17T09:47:26;8.68;;;2.45;;
52948;SDS011;38812;50.942;3.644;2023-05-17T09:49:56;14.70;;;2.60;;
52948;SDS011;38812;50.942;3.644;2023-05-17T09:52:24;12.52;;;2.90;;
52948;SDS011;38812;50.942;3.644;2023-05-17T09:54:54;10.73;;;2.72;;
52948;SDS011;38812;50.942;3.644;2023-05-17T09:57:21;7.72;;;2.45;;
52948;SDS011;38812;50.942;3.644;2023-05-17T09:59:47;4.28;;;1.98;;
52948;SDS011;38812;50.942;3.644;2023-05-17T10:02:20;5.93;;;2.10;;
52948;SDS011;38812;50.942;3.644;2023-05-17T10:04:50;10.23;;;2.17;;
52948;SDS011;38812;50.942;3.644;2023-05-17T10:07:18;8.85;;;2.80;;
52948;SDS011;38812;50.942;3.644;2023-05-17T10:09:44;15.88;;;2.88;;
52948;SDS011;38812;50.942;3.644;2023-05-17T10:12:17;8.13;;;1.85;;
52948;SDS011;38812;50.942;3.644;2023-05-17T10:14:46;9.30;;;2.58;;
52948;SDS011;38812;50.942;3.644;2023-05-17T10:17:11;11.95;;;2.55;;
52948;SDS011;38812;50.942;3.644;2023-05-17T10:19:38;7.13;;;2.08;;
52948;SDS011;38812;50.942;3.644;2023-05-17T10:22:04;5.95;;;2.10;;
52948;SDS011;38812;50.942;3.644;2023-05-17T10:24:30;6.80;;;2.20;;
52948;SDS011;38812;50.942;3.644;2023-05-17T10:26:57;9.55;;;3.17;;
52948;SDS011;38812;50.942;3.644;2023-05-17T10:29:23;11.57;;;2.67;;
52948;SDS011;38812;50.942;3.644;2023-05-17T10:31:50;7.10;;;2.28;;
52948;SDS011;38812;50.942;3.644;2023-05-17T10:34:16;8.55;;;2.22;;
52948;SDS011;38812;50.942;3.644;2023-05-17T10:36:43;5.47;;;2.08;;
52948;SDS011;38812;50.942;3.644;2023-05-17T10:39:09;15.98;;;2.10;;
52948;SDS011;38812;50.942;3.644;2023-05-17T10:41:36;9.23;;;2.15;;
52948;SDS011;38812;50.942;3.644;2023-05-17T10:44:05;2.88;;;1.40;;
52948;SDS011;38812;50.942;3.644;2023-05-17T10:46:32;8.88;;;2.05;;
52948;SDS011;38812;50.942;3.644;2023-05-17T10:48:59;7.63;;;1.77;;
52948;SDS011;38812;50.942;3.644;2023-05-17T10:51:26;12.40;;;2.13;;
52948;SDS011;38812;50.942;3.644;2023-05-17T10:56:27;10.82;;;2.20;;
52948;SDS011;38812;50.942;3.644;2023-05-17T11:02:06;6.57;;;1.60;;
52948;SDS011;38812;50.942;3.644;2023-05-17T11:04:34;7.72;;;2.50;;
52948;SDS011;38812;50.942;3.644;2023-05-17T11:12:41;6.15;;;2.13;;
52948;SDS011;38812;50.942;3.644;2023-05-17T11:15:10;7.28;;;1.85;;
52948;SDS011;38812;50.942;3.644;2023-05-17T11:22:48;8.10;;;1.85;;
52948;SDS011;38812;50.942;3.644;2023-05-17T11:25:19;5.82;;;2.10;;
52948;SDS011;38812;50.942;3.644;2023-05-17T11:27:49;12.07;;;2.08;;
52948;SDS011;38812;50.942;3.644;2023-05-17T11:30:26;7.43;;;1.50;;
52948;SDS011;38812;50.942;3.644;2023-05-17T11:33:03;6.97;;;2.15;;
52948;SDS011;38812;50.942;3.644;2023-05-17T11:35:33;5.38;;;1.85;;
52948;SDS011;38812;50.942;3.644;2023-05-17T11:38:20;10.77;;;2.00;;
52948;SDS011;38812;50.942;3.644;2023-05-17T11:40:55;7.65;;;2.35;;
52948;SDS011;38812;50.942;3.644;2023-05-17T11:43:22;8.43;;;1.83;;
52948;SDS011;38812;50.942;3.644;2023-05-17T11:45:53;3.60;;;1.70;;
52948;SDS011;38812;50.942;3.644;2023-05-17T11:48:21;7.75;;;1.77;;
52948;SDS011;38812;50.942;3.644;2023-05-17T11:50:48;6.43;;;2.10;;
52948;SDS011;38812;50.942;3.644;2023-05-17T11:53:15;5.03;;;1.98;;
52948;SDS011;38812;50.942;3.644;2023-05-17T11:55:42;5.63;;;1.90;;
52948;SDS011;38812;50.942;3.644;2023-05-17T11:58:11;6.13;;;1.75;;
52948;SDS011;38812;50.942;3.644;2023-05-17T12:00:38;10.55;;;2.22;;
52948;SDS011;38812;50.942;3.644;2023-05-17T12:03:19;5.80;;;1.90;;
52948;SDS011;38812;50.942;3.644;2023-05-17T12:05:46;15.13;;;3.83;;
52948;SDS011;38812;50.942;3.644;2023-05-17T12:08:14;8.90;;;1.73;;
52948;SDS011;38812;50.942;3.644;2023-05-17T12:10:47;8.05;;;1.75;;
52948;SDS011;38812;50.942;3.644;2023-05-17T12:13:14;7.20;;;1.88;;
52948;SDS011;38812;50.942;3.644;2023-05-17T12:15:40;11.15;;;2.20;;
52948;SDS011;38812;50.942;3.644;2023-05-17T12:18:09;5.03;;;1.60;;
52948;SDS011;38812;50.942;3.644;2023-05-17T12:20:35;9.30;;;2.30;;
52948;SDS011;38812;50.942;3.644;2023-05-17T12:23:02;9.43;;;1.88;;
52948;SDS011;38812;50.942;3.644;2023-05-17T12:25:28;10.70;;;2.00;;
52948;SDS011;38812;50.942;3.644;2023-05-17T12:30:39;10.25;;;1.95;;
52948;SDS011;38812;50.942;3.644;2023-05-17T12:33:05;8.75;;;2.10;;
52948;SDS011;38812;50.942;3.644;2023-05-17T12:35:31;14.25;;;2.35;;
52948;SDS011;38812;50.942;3.644;2023-05-17T12:37:57;11.68;;;2.20;;
52948;SDS011;38812;50.942;3.644;2023-05-17T12:40:23;14.50;;;2.55;;
52948;SDS011;38812;50.942;3.644;2023-05-17T12:42:48;8.88;;;1.98;;
52948;SDS011;38812;50.942;3.644;2023-05-17T12:45:14;7.50;;;2.05;;
52948;SDS011;38812;50.942;3.644;2023-05-17T12:47:39;7.28;;;1.77;;
52948;SDS011;38812;50.942;3.644;2023-05-17T12:50:05;7.00;;;1.67;;
52948;SDS011;38812;50.942;3.644;2023-05-17T12:52:34;12.48;;;2.10;;
52948;SDS011;38812;50.942;3.644;2023-05-17T12:55:03;7.00;;;1.85;;
52948;SDS011;38812;50.942;3.644;2023-05-17T12:57:29;13.65;;;2.42;;
52948;SDS011;38812;50.942;3.644;2023-05-17T12:59:55;9.55;;;2.20;;
52948;SDS011;38812;50.942;3.644;2023-05-17T13:02:21;14.98;;;2.88;;
52948;SDS011;38812;50.942;3.644;2023-05-17T13:04:47;5.22;;;1.55;;
52948;SDS011;38812;50.942;3.644;2023-05-17T13:07:19;10.48;;;2.33;;
52948;SDS011;38812;50.942;3.644;2023-05-17T13:09:47;3.38;;;1.38;;
52948;SDS011;38812;50.942;3.644;2023-05-17T13:12:17;7.43;;;1.70;;
52948;SDS011;38812;50.942;3.644;2023-05-17T13:14:47;9.60;;;2.00;;
52948;SDS011;38812;50.942;3.644;2023-05-17T13:19:41;7.72;;;1.80;;
52948;SDS011;38812;50.942;3.644;2023-05-17T13:22:06;8.30;;;1.90;;
52948;SDS011;38812;50.942;3.644;2023-05-17T13:24:32;9.38;;;2.35;;
52948;SDS011;38812;50.942;3.644;2023-05-17T13:26:59;6.53;;;1.70;;
52948;SDS011;38812;50.942;3.644;2023-05-17T13:29:25;7.70;;;1.58;;
52948;SDS011;38812;50.942;3.644;2023-05-17T13:31:51;6.88;;;2.50;;
52948;SDS011;38812;50.942;3.644;2023-05-17T13:34:17;8.50;;;1.85;;
52948;SDS011;38812;50.942;3.644;2023-05-17T13:36:44;5.78;;;1.40;;
52948;SDS011;38812;50.942;3.644;2023-05-17T13:39:10;8.93;;;1.90;;
52948;SDS011;38812;50.942;3.644;2023-05-17T13:41:36;9.85;;;1.30;;
52948;SDS011;38812;50.942;3.644;2023-05-17T13:44:01;6.80;;;1.60;;
52948;SDS011;38812;50.942;3.644;2023-05-17T13:46:27;5.82;;;1.20;;
52948;SDS011;38812;50.942;3.644;2023-05-17T13:48:52;6.25;;;1.70;;
52948;SDS011;38812;50.942;3.644;2023-05-17T13:51:17;7.35;;;1.55;;
52948;SDS011;38812;50.942;3.644;2023-05-17T13:53:43;10.48;;;2.13;;
52948;SDS011;38812;50.942;3.644;2023-05-17T13:56:08;7.30;;;1.15;;
52948;SDS011;38812;50.942;3.644;2023-05-17T13:58:34;9.80;;;1.67;;
52948;SDS011;38812;50.942;3.644;2023-05-17T14:00:59;9.73;;;1.83;;
52948;SDS011;38812;50.942;3.644;2023-05-17T14:03:24;8.00;;;1.58;;
52948;SDS011;38812;50.942;3.644;2023-05-17T14:05:50;14.43;;;2.28;;
52948;SDS011;38812;50.942;3.644;2023-05-17T14:08:16;5.65;;;1.25;;
52948;SDS011;38812;50.942;3.644;2023-05-17T14:10:42;5.68;;;1.33;;
52948;SDS011;38812;50.942;3.644;2023-05-17T14:13:08;10.43;;;2.03;;
52948;SDS011;38812;50.942;3.644;2023-05-17T14:15:35;7.85;;;2.00;;
52948;SDS011;38812;50.942;3.644;2023-05-17T14:18:03;7.18;;;1.55;;
52948;SDS011;38812;50.942;3.644;2023-05-17T14:20:29;5.78;;;1.42;;
52948;SDS011;38812;50.942;3.644;2023-05-17T14:22:54;14.90;;;2.13;;
52948;SDS011;38812;50.942;3.644;2023-05-17T14:25:20;6.65;;;1.40;;
52948;SDS011;38812;50.942;3.644;2023-05-17T14:27:45;8.80;;;1.92;;
52948;SDS011;38812;50.942;3.644;2023-05-17T14:30:11;3.28;;;1.35;;
52948;SDS011;38812;50.942;3.644;2023-05-17T14:32:37;8.80;;;2.00;;
52948;SDS011;38812;50.942;3.644;2023-05-17T14:35:04;7.20;;;1.60;;
52948;SDS011;38812;50.942;3.644;2023-05-17T14:37:30;5.63;;;1.35;;
52948;SDS011;38812;50.942;3.644;2023-05-17T14:39:56;6.97;;;1.70;;
52948;SDS011;38812;50.942;3.644;2023-05-17T14:42:21;5.82;;;1.98;;
52948;SDS011;38812;50.942;3.644;2023-05-17T14:44:46;8.95;;;1.83;;
52948;SDS011;38812;50.942;3.644;2023-05-17T14:47:12;9.27;;;1.52;;
52948;SDS011;38812;50.942;3.644;2023-05-17T14:49:37;9.05;;;2.33;;
52948;SDS011;38812;50.942;3.644;2023-05-17T14:52:03;6.95;;;2.47;;
52948;SDS011;38812;50.942;3.644;2023-05-17T14:54:28;9.90;;;2.05;;
52948;SDS011;38812;50.942;3.644;2023-05-17T14:56:56;3.28;;;1.30;;
52948;SDS011;38812;50.942;3.644;2023-05-17T14:59:22;5.57;;;2.22;;
52948;SDS011;38812;50.942;3.644;2023-05-17T15:01:48;7.07;;;1.48;;
52948;SDS011;38812;50.942;3.644;2023-05-17T15:04:13;5.78;;;1.90;;
52948;SDS011;38812;50.942;3.644;2023-05-17T15:06:42;8.05;;;2.38;;
52948;SDS011;38812;50.942;3.644;2023-05-17T15:09:07;12.07;;;1.80;;
52948;SDS011;38812;50.942;3.644;2023-05-17T15:11:36;7.88;;;1.60;;
52948;SDS011;38812;50.942;3.644;2023-05-17T15:14:02;3.60;;;1.42;;